createdAt,value
2023-05-16T00:01:58.867Z,9.48
2023-05-16T00:04:26.595Z,9.48
2023-05-16T00:06:53.427Z,9.54
2023-05-16T00:09:20.212Z,9.58
2023-05-16T00:11:48.437Z,9.58
2023-05-16T00:14:15.327Z,9.56
2023-05-16T00:16:42.329Z,9.58
2023-05-16T00:19:10.580Z,9.55
2023-05-16T00:21:37.407Z,9.56
2023-05-16T00:24:05.206Z,9.52
2023-05-16T00:26:32.012Z,9.50
2023-05-16T00:28:58.707Z,9.40
2023-05-16T00:31:25.484Z,9.35
2023-05-16T00:33:52.282Z,9.42
2023-05-16T00:36:19.132Z,9.43
2023-05-16T00:38:45.878Z,9.43
2023-05-16T00:41:12.621Z,9.47
2023-05-16T00:43:39.889Z,9.46
2023-05-16T00:46:06.777Z,9.47
2023-05-16T00:48:33.907Z,9.49
2023-05-16T00:51:01.627Z,9.48
2023-05-16T00:53:28.455Z,9.56
2023-05-16T00:55:56.697Z,9.38
2023-05-16T00:58:23.540Z,9.35
2023-05-16T01:00:50.225Z,9.36
2023-05-16T01:03:17.246Z,9.43
2023-05-16T01:05:44.403Z,9.43
2023-05-16T01:08:11.276Z,9.46
2023-05-16T01:10:45.005Z,9.45
2023-05-16T01:13:59.910Z,9.42
2023-05-16T01:17:03.969Z,9.48
2023-05-16T01:20:00.926Z,9.44
2023-05-16T01:22:43.071Z,9.39
2023-05-16T01:25:34.942Z,9.36
2023-05-16T01:28:03.322Z,9.37
2023-05-16T01:30:35.334Z,9.38
2023-05-16T01:33:02.096Z,9.38
2023-05-16T01:35:29.267Z,9.36
2023-05-16T01:38:05.950Z,9.31
2023-05-16T01:40:50.571Z,9.23
2023-05-16T01:43:20.523Z,9.20
2023-05-16T01:45:56.419Z,9.22
2023-05-16T01:48:24.282Z,9.32
2023-05-16T01:50:56.059Z,9.31
2023-05-16T01:53:27.631Z,9.33
2023-05-16T01:55:57.438Z,9.29
2023-05-16T01:58:26.766Z,9.35
2023-05-16T02:00:54.187Z,9.41
2023-05-16T02:03:21.051Z,9.38
2023-05-16T02:05:47.830Z,9.38
2023-05-16T02:08:14.841Z,9.40
2023-05-16T02:10:41.697Z,9.42
2023-05-16T02:13:08.407Z,9.48
2023-05-16T02:15:35.128Z,9.43
2023-05-16T02:18:01.929Z,9.42
2023-05-16T02:20:28.799Z,9.44
2023-05-16T02:22:56.001Z,9.36
2023-05-16T02:25:22.760Z,9.28
2023-05-16T02:27:49.577Z,9.32
2023-05-16T02:30:16.409Z,9.40
2023-05-16T02:32:45.331Z,9.42
2023-05-16T02:35:12.538Z,9.38
2023-05-16T02:37:40.359Z,9.38
2023-05-16T02:40:08.093Z,9.33
2023-05-16T02:42:34.841Z,9.41
2023-05-16T02:45:01.741Z,9.42
2023-05-16T02:47:28.482Z,9.44
2023-05-16T02:49:55.243Z,9.43
2023-05-16T02:52:21.987Z,9.44
2023-05-16T02:54:56.093Z,9.45
2023-05-16T02:57:26.989Z,9.38
2023-05-16T02:59:53.708Z,9.30
2023-05-16T03:02:20.562Z,9.32
2023-05-16T03:04:47.351Z,9.35
2023-05-16T03:07:14.189Z,9.40
2023-05-16T03:09:41.056Z,9.33
2023-05-16T03:12:07.972Z,9.39
2023-05-16T03:14:34.688Z,9.25
2023-05-16T03:17:01.473Z,9.24
2023-05-16T03:19:28.222Z,9.29
2023-05-16T03:21:55.523Z,9.28
2023-05-16T03:24:23.218Z,9.28
2023-05-16T03:26:50.113Z,9.46
2023-05-16T03:29:16.809Z,9.52
2023-05-16T03:31:43.657Z,9.30
2023-05-16T03:34:10.443Z,9.29
2023-05-16T03:36:38.946Z,9.26
2023-05-16T03:39:05.694Z,9.25
2023-05-16T03:41:32.421Z,9.31
2023-05-16T03:43:59.195Z,9.34
2023-05-16T03:46:26.217Z,9.30
2023-05-16T03:48:52.959Z,9.35
2023-05-16T03:51:19.759Z,9.31
2023-05-16T03:53:46.584Z,9.42
2023-05-16T03:56:13.441Z,9.42
2023-05-16T03:58:40.234Z,9.43
2023-05-16T04:01:06.953Z,9.46
2023-05-16T04:03:33.811Z,9.43
2023-05-16T04:06:00.901Z,9.44
2023-05-16T04:08:27.810Z,9.36
2023-05-16T04:10:54.728Z,9.37
2023-05-16T04:13:21.615Z,9.43
2023-05-16T04:15:48.341Z,9.49
2023-05-16T04:18:15.174Z,9.60
2023-05-16T04:20:47.702Z,9.66
2023-05-16T04:23:14.723Z,9.72
2023-05-16T04:25:42.125Z,9.71
2023-05-16T04:28:08.885Z,9.73
2023-05-16T04:30:35.602Z,9.78
2023-05-16T04:33:02.972Z,9.90
2023-05-16T04:35:29.835Z,10.07
2023-05-16T04:37:57.005Z,9.95
2023-05-16T04:40:25.402Z,10.13
2023-05-16T04:42:53.569Z,10.05
2023-05-16T04:45:21.162Z,10.03
2023-05-16T04:47:47.881Z,10.05
2023-05-16T04:50:16.044Z,10.04
2023-05-16T04:52:42.664Z,10.06
2023-05-16T04:55:11.139Z,10.03
2023-05-16T04:57:37.995Z,10.02
2023-05-16T05:00:08.321Z,10.02
2023-05-16T05:02:35.261Z,10.19
2023-05-16T05:05:02.050Z,10.25
2023-05-16T05:07:29.375Z,10.23
2023-05-16T05:09:56.255Z,10.20
2023-05-16T05:12:23.117Z,10.26
2023-05-16T05:14:49.936Z,10.25
2023-05-16T05:17:17.865Z,10.33
2023-05-16T05:19:44.649Z,10.30
2023-05-16T05:22:12.157Z,10.25
2023-05-16T05:24:38.904Z,10.22
2023-05-16T05:27:05.916Z,10.23
2023-05-16T05:29:32.723Z,10.17
2023-05-16T05:31:59.741Z,10.13
2023-05-16T05:34:26.512Z,10.17
2023-05-16T05:36:53.252Z,10.19
2023-05-16T05:39:19.842Z,10.16
2023-05-16T05:41:46.706Z,10.26
2023-05-16T05:44:13.541Z,10.31
2023-05-16T05:46:40.455Z,10.44
2023-05-16T05:49:07.211Z,10.25
2023-05-16T05:51:33.960Z,10.25
2023-05-16T05:54:01.822Z,10.25
2023-05-16T05:56:28.669Z,10.27
2023-05-16T05:58:55.567Z,10.27
2023-05-16T06:01:22.428Z,10.30
2023-05-16T06:03:49.221Z,10.24
2023-05-16T06:06:16.005Z,10.33
2023-05-16T06:08:42.809Z,10.29
2023-05-16T06:11:09.585Z,10.27
2023-05-16T06:13:36.510Z,10.27
2023-05-16T06:16:03.506Z,10.31
2023-05-16T06:18:30.332Z,10.31
2023-05-16T06:20:57.110Z,10.34
2023-05-16T06:23:23.836Z,10.33
2023-05-16T06:25:51.079Z,10.35
2023-05-16T06:28:17.868Z,10.27
2023-05-16T06:30:44.692Z,10.35
2023-05-16T06:33:11.513Z,10.31
2023-05-16T06:35:38.645Z,10.35
2023-05-16T06:38:05.315Z,10.35
2023-05-16T06:40:32.093Z,10.45
2023-05-16T06:42:58.990Z,10.51
2023-05-16T06:45:26.205Z,10.58
2023-05-16T06:47:55.239Z,10.61
2023-05-16T06:50:23.524Z,10.65
2023-05-16T06:52:50.157Z,10.76
2023-05-16T06:55:17.144Z,10.73
2023-05-16T06:57:43.875Z,10.77
2023-05-16T07:00:11.041Z,10.86
2023-05-16T07:02:37.814Z,10.87
2023-05-16T07:05:04.901Z,10.84
2023-05-16T07:07:31.932Z,10.90
2023-05-16T07:09:58.782Z,11.00
2023-05-16T07:12:25.554Z,11.19
2023-05-16T07:14:52.572Z,11.13
2023-05-16T07:17:19.355Z,11.01
2023-05-16T07:19:46.226Z,11.04
2023-05-16T07:22:12.940Z,11.03
2023-05-16T07:24:39.961Z,11.09
2023-05-16T07:27:07.108Z,11.17
2023-05-16T07:29:34.056Z,11.13
2023-05-16T07:32:01.183Z,11.20
2023-05-16T07:34:28.134Z,11.03
2023-05-16T07:36:54.976Z,10.90
2023-05-16T07:39:21.751Z,10.98
2023-05-16T07:41:48.568Z,10.93
2023-05-16T07:44:15.364Z,10.93
2023-05-16T07:46:45.008Z,10.99
2023-05-16T07:49:12.079Z,11.01
2023-05-16T07:51:38.914Z,11.05
2023-05-16T07:54:05.842Z,11.03
2023-05-16T07:56:33.263Z,11.02
2023-05-16T07:59:00.341Z,11.21
2023-05-16T08:01:27.164Z,11.07
2023-05-16T08:03:54.047Z,10.97
2023-05-16T08:06:20.860Z,10.82
2023-05-16T08:08:47.662Z,10.84
2023-05-16T08:11:15.338Z,10.95
2023-05-16T08:13:42.263Z,11.01
2023-05-16T08:16:09.238Z,11.04
2023-05-16T08:18:36.121Z,11.07
2023-05-16T08:21:03.091Z,11.05
2023-05-16T08:23:29.831Z,11.04
2023-05-16T08:25:56.782Z,11.17
2023-05-16T08:28:23.582Z,11.21
2023-05-16T08:30:50.595Z,11.00
2023-05-16T08:33:17.564Z,10.91
2023-05-16T08:35:45.023Z,10.95
2023-05-16T08:38:11.927Z,10.95
2023-05-16T08:40:40.314Z,10.99
2023-05-16T08:43:07.592Z,11.03
2023-05-16T08:45:34.866Z,11.09
2023-05-16T08:48:02.205Z,11.23
2023-05-16T08:50:31.874Z,11.25
2023-05-16T08:52:58.773Z,11.23
2023-05-16T08:55:27.539Z,11.07
2023-05-16T08:57:54.715Z,11.15
2023-05-16T09:00:22.894Z,11.26
2023-05-16T09:02:50.285Z,11.01
2023-05-16T09:05:17.753Z,11.02
2023-05-16T09:07:45.415Z,10.94
2023-05-16T09:10:13.438Z,10.91
2023-05-16T09:12:42.095Z,10.90
2023-05-16T09:15:10.900Z,10.96
2023-05-16T09:17:43.396Z,10.99
2023-05-16T09:20:15.221Z,10.96
2023-05-16T09:22:54.973Z,10.89
2023-05-16T09:25:30.137Z,11.03
2023-05-16T09:28:00.301Z,10.97
2023-05-16T09:30:31.934Z,10.92
2023-05-16T09:32:59.620Z,10.95
2023-05-16T09:37:56.988Z,10.84
2023-05-16T09:40:24.381Z,10.76
2023-05-16T09:43:04.904Z,10.74
2023-05-16T09:45:32.754Z,10.73
2023-05-16T09:48:03.312Z,10.78
2023-05-16T09:50:30.315Z,10.85
2023-05-16T09:52:57.206Z,10.90
2023-05-16T09:55:24.107Z,10.82
2023-05-16T09:57:51.052Z,10.80
2023-05-16T10:00:18.586Z,10.91
2023-05-16T10:02:46.141Z,10.97
2023-05-16T10:05:13.061Z,10.97
2023-05-16T10:07:40.216Z,11.01
2023-05-16T10:10:08.535Z,11.01
2023-05-16T10:12:35.701Z,11.07
2023-05-16T10:15:03.882Z,11.04
2023-05-16T10:17:39.681Z,11.11
2023-05-16T10:20:08.273Z,11.12
2023-05-16T10:22:36.098Z,11.08
2023-05-16T10:25:28.110Z,11.14
2023-05-16T10:27:55.714Z,11.07
2023-05-16T10:30:22.593Z,11.14
2023-05-16T10:32:50.635Z,11.25
2023-05-16T10:35:17.723Z,11.10
2023-05-16T10:37:44.687Z,11.30
2023-05-16T10:40:12.234Z,11.11
2023-05-16T10:42:39.120Z,10.99
2023-05-16T10:45:19.814Z,10.92
2023-05-16T10:47:59.641Z,10.70
2023-05-16T10:50:45.831Z,10.84
2023-05-16T10:53:21.850Z,10.90
2023-05-16T10:56:07.340Z,10.81
2023-05-16T10:58:40.688Z,10.83
2023-05-16T11:01:29.508Z,10.75
2023-05-16T11:04:02.218Z,10.81
2023-05-16T11:06:32.430Z,10.97
2023-05-16T11:09:11.475Z,10.97
2023-05-16T11:11:53.726Z,11.03
2023-05-16T11:14:26.338Z,11.13
2023-05-16T11:17:03.746Z,11.22
2023-05-16T11:19:50.249Z,11.24
2023-05-16T11:22:20.678Z,11.29
2023-05-16T11:25:01.449Z,11.17
2023-05-16T11:27:28.293Z,11.22
2023-05-16T11:30:01.865Z,11.31
2023-05-16T11:32:30.009Z,11.34
2023-05-16T11:34:58.598Z,11.31
2023-05-16T11:37:25.614Z,11.24
2023-05-16T11:39:52.481Z,11.45
2023-05-16T11:42:19.437Z,11.35
2023-05-16T11:44:46.441Z,11.30
2023-05-16T11:47:13.825Z,11.38
2023-05-16T11:49:41.619Z,11.34
2023-05-16T11:52:08.699Z,11.48
2023-05-16T11:54:35.640Z,11.64
2023-05-16T11:57:03.372Z,11.72
2023-05-16T11:59:30.299Z,11.72
2023-05-16T12:01:57.252Z,11.77
2023-05-16T12:04:24.321Z,11.96
2023-05-16T12:07:00.806Z,11.85
2023-05-16T12:09:27.937Z,11.94
2023-05-16T12:11:54.851Z,11.65
2023-05-16T12:14:21.804Z,11.72
2023-05-16T12:16:49.564Z,11.74
2023-05-16T12:19:16.869Z,11.70
2023-05-16T12:21:43.794Z,11.66
2023-05-16T12:24:13.044Z,11.64
2023-05-16T12:26:41.370Z,11.59
2023-05-16T12:29:08.857Z,11.52
2023-05-16T12:31:41.750Z,11.42
2023-05-16T12:34:20.675Z,11.55
2023-05-16T12:36:53.013Z,11.57
2023-05-16T12:39:20.581Z,11.61
2023-05-16T12:41:47.495Z,11.55
2023-05-16T12:44:17.572Z,11.56
2023-05-16T12:46:46.467Z,11.61
2023-05-16T12:49:13.896Z,11.66
2023-05-16T12:51:41.289Z,11.59
2023-05-16T12:54:12.041Z,11.54
2023-05-16T12:56:40.263Z,11.50
2023-05-16T12:59:07.623Z,11.50
2023-05-16T13:01:35.780Z,11.58
2023-05-16T13:04:03.170Z,11.57
2023-05-16T13:06:36.997Z,11.57
2023-05-16T13:09:16.545Z,11.62
2023-05-16T13:11:43.341Z,11.69
2023-05-16T13:14:10.220Z,11.68
2023-05-16T13:16:37.087Z,11.72
2023-05-16T13:19:05.484Z,11.67
2023-05-16T13:21:32.461Z,11.68
2023-05-16T13:23:59.655Z,11.63
2023-05-16T13:26:27.498Z,11.48
2023-05-16T13:28:55.342Z,11.47
2023-05-16T13:31:22.853Z,11.42
2023-05-16T13:33:49.742Z,11.51
2023-05-16T13:36:16.544Z,11.60
2023-05-16T13:38:43.538Z,11.64
2023-05-16T13:41:10.390Z,11.65
2023-05-16T13:43:37.322Z,11.54
2023-05-16T13:46:04.232Z,11.53
2023-05-16T13:48:31.105Z,11.44
2023-05-16T13:50:57.894Z,11.33
2023-05-16T13:53:24.710Z,11.51
2023-05-16T13:55:51.499Z,11.53
2023-05-16T13:58:18.344Z,11.55
2023-05-16T14:00:46.193Z,11.56
2023-05-16T14:03:13.502Z,11.58
2023-05-16T14:05:40.790Z,11.59
2023-05-16T14:08:07.996Z,11.68
2023-05-16T14:10:34.773Z,11.65
2023-05-16T14:13:01.671Z,11.70
2023-05-16T14:15:28.740Z,11.64
2023-05-16T14:17:55.839Z,11.78
2023-05-16T14:20:23.190Z,11.83
2023-05-16T14:22:49.983Z,11.75
2023-05-16T14:25:16.854Z,11.72
2023-05-16T14:27:43.884Z,11.85
2023-05-16T14:30:11.205Z,11.75
2023-05-16T14:32:38.152Z,11.75
2023-05-16T14:35:05.517Z,11.75
2023-05-16T14:37:32.626Z,11.90
2023-05-16T14:40:00.975Z,11.89
2023-05-16T14:42:27.956Z,11.80
2023-05-16T14:44:54.746Z,11.88
2023-05-16T14:47:21.645Z,11.72
2023-05-16T14:49:48.419Z,11.69
2023-05-16T14:52:15.231Z,11.75
2023-05-16T14:54:41.988Z,11.75
2023-05-16T14:57:08.816Z,11.69
2023-05-16T14:59:35.772Z,11.76
2023-05-16T15:02:02.929Z,11.74
2023-05-16T15:04:29.810Z,11.75
2023-05-16T15:06:56.721Z,11.74
2023-05-16T15:09:23.550Z,11.73
2023-05-16T15:11:50.430Z,11.72
2023-05-16T15:14:17.308Z,11.85
2023-05-16T15:16:44.330Z,11.78
2023-05-16T15:19:11.483Z,11.86
2023-05-16T15:21:38.446Z,11.81
2023-05-16T15:24:05.719Z,11.83
2023-05-16T15:26:32.942Z,11.87
2023-05-16T15:28:59.844Z,11.85
2023-05-16T15:31:27.184Z,11.82
2023-05-16T15:33:54.179Z,11.78
2023-05-16T15:36:21.171Z,11.68
2023-05-16T15:38:47.995Z,11.67
2023-05-16T15:41:31.895Z,11.63
2023-05-16T15:44:02.881Z,11.58
2023-05-16T15:46:33.003Z,11.44
2023-05-16T15:49:00.120Z,11.35
2023-05-16T15:51:26.889Z,11.32
2023-05-16T15:53:53.668Z,11.32
2023-05-16T15:56:21.654Z,11.38
2023-05-16T15:58:48.582Z,11.31
2023-05-16T16:01:16.693Z,11.31
2023-05-16T16:03:43.784Z,11.30
2023-05-16T16:06:10.811Z,11.27
2023-05-16T16:08:37.706Z,11.26
2023-05-16T16:11:05.513Z,11.23
2023-05-16T16:13:32.784Z,11.22
2023-05-16T16:15:59.836Z,11.18
2023-05-16T16:18:26.713Z,11.04
2023-05-16T16:20:53.989Z,11.06
2023-05-16T16:23:21.832Z,11.04
2023-05-16T16:25:48.595Z,10.99
2023-05-16T16:28:15.851Z,11.02
2023-05-16T16:30:44.297Z,10.93
2023-05-16T16:33:11.424Z,10.98
2023-05-16T16:35:38.310Z,10.88
2023-05-16T16:38:07.201Z,10.82
2023-05-16T16:40:34.665Z,10.84
2023-05-16T16:43:01.762Z,10.64
2023-05-16T16:45:28.849Z,10.66
2023-05-16T16:47:56.094Z,10.61
2023-05-16T16:50:23.022Z,10.61
2023-05-16T16:52:49.828Z,10.64
2023-05-16T16:55:16.831Z,10.59
2023-05-16T16:57:43.757Z,10.59
2023-05-16T17:00:11.617Z,10.66
2023-05-16T17:02:38.605Z,10.64
2023-05-16T17:05:06.846Z,10.65
2023-05-16T17:07:34.037Z,10.62
2023-05-16T17:10:01.247Z,10.59
2023-05-16T17:12:28.981Z,10.65
2023-05-16T17:14:58.902Z,10.62
2023-05-16T17:17:26.243Z,10.51
2023-05-16T17:19:53.121Z,10.50
2023-05-16T17:22:21.535Z,10.54
2023-05-16T17:24:48.449Z,10.50
2023-05-16T17:27:15.534Z,10.49
2023-05-16T17:29:42.725Z,10.52
2023-05-16T17:32:09.606Z,10.51
2023-05-16T17:34:36.651Z,10.47
2023-05-16T17:37:06.245Z,10.45
2023-05-16T17:39:34.263Z,10.34
2023-05-16T17:42:01.091Z,10.27
2023-05-16T17:44:27.940Z,10.21
2023-05-16T17:46:54.856Z,10.24
2023-05-16T17:49:21.912Z,10.33
2023-05-16T17:51:50.453Z,10.27
2023-05-16T17:54:18.709Z,10.28
2023-05-16T17:56:46.836Z,10.34
2023-05-16T17:59:14.049Z,10.31
2023-05-16T18:01:41.424Z,10.36
2023-05-16T18:04:08.740Z,10.31
2023-05-16T18:06:37.767Z,10.34
2023-05-16T18:09:10.519Z,10.35
2023-05-16T18:11:40.710Z,10.35
2023-05-16T18:14:11.713Z,10.31
2023-05-16T18:16:38.805Z,10.28
2023-05-16T18:19:06.128Z,10.35
2023-05-16T18:21:34.082Z,10.30
2023-05-16T18:24:00.953Z,10.30
2023-05-16T18:26:28.926Z,10.30
2023-05-16T18:28:56.132Z,10.30
2023-05-16T18:31:22.996Z,10.28
2023-05-16T18:33:50.198Z,10.29
2023-05-16T18:36:17.077Z,10.22
2023-05-16T18:38:43.939Z,10.08
2023-05-16T18:41:10.998Z,10.12
2023-05-16T18:43:37.853Z,10.17
2023-05-16T18:46:04.759Z,10.16
2023-05-16T18:48:32.468Z,10.13
2023-05-16T18:51:00.930Z,10.11
2023-05-16T18:53:27.785Z,10.12
2023-05-16T18:55:54.790Z,10.05
2023-05-16T18:58:21.851Z,10.06
2023-05-16T19:00:48.843Z,10.06
2023-05-16T19:03:15.919Z,10.03
2023-05-16T19:05:43.152Z,9.91
2023-05-16T19:08:10.369Z,9.89
2023-05-16T19:10:38.698Z,9.99
2023-05-16T19:13:08.957Z,9.99
2023-05-16T19:15:36.524Z,9.96
2023-05-16T19:18:04.964Z,10.00
2023-05-16T19:20:33.723Z,10.00
2023-05-16T19:23:01.143Z,9.98
2023-05-16T19:25:28.257Z,10.00
2023-05-16T19:27:55.156Z,10.05
2023-05-16T19:30:23.507Z,9.98
2023-05-16T19:32:51.759Z,9.95
2023-05-16T19:35:19.758Z,10.00
2023-05-16T19:37:46.648Z,9.99
2023-05-16T19:40:16.336Z,10.01
2023-05-16T19:42:44.127Z,10.01
2023-05-16T19:45:11.282Z,9.98
2023-05-16T19:47:38.194Z,10.00
2023-05-16T19:50:05.733Z,9.99
2023-05-16T19:52:32.644Z,10.00
2023-05-16T19:54:59.501Z,10.04
2023-05-16T19:57:26.295Z,10.03
2023-05-16T19:59:53.196Z,9.97
2023-05-16T20:02:21.237Z,9.89
2023-05-16T20:04:50.572Z,9.87
2023-05-16T20:07:17.481Z,9.85
2023-05-16T20:09:44.444Z,9.83
2023-05-16T20:12:12.817Z,9.87
2023-05-16T20:14:39.860Z,9.90
2023-05-16T20:17:08.347Z,9.91
2023-05-16T20:19:36.592Z,9.90
2023-05-16T20:22:03.721Z,9.87
2023-05-16T20:24:30.468Z,9.85
2023-05-16T20:26:57.241Z,9.87
2023-05-16T20:29:24.078Z,9.92
2023-05-16T20:31:50.785Z,9.88
2023-05-16T20:34:17.562Z,9.83
2023-05-16T20:36:44.344Z,9.83
2023-05-16T20:39:11.255Z,9.75
2023-05-16T20:41:38.064Z,9.71
2023-05-16T20:44:06.213Z,9.72
2023-05-16T20:46:33.291Z,9.82
2023-05-16T20:49:00.287Z,9.77
2023-05-16T20:51:27.117Z,9.83
2023-05-16T20:53:53.790Z,9.68
2023-05-16T20:56:21.000Z,9.75
2023-05-16T20:58:47.759Z,9.75
2023-05-16T21:01:14.488Z,9.75
2023-05-16T21:03:41.415Z,9.76
2023-05-16T21:06:08.286Z,9.79
2023-05-16T21:08:35.048Z,9.77
2023-05-16T21:11:01.870Z,9.73
2023-05-16T21:13:29.063Z,9.60
2023-05-16T21:15:55.807Z,9.63
2023-05-16T21:18:22.838Z,9.61
2023-05-16T21:20:49.775Z,9.60
2023-05-16T21:23:16.630Z,9.58
2023-05-16T21:25:43.397Z,9.62
2023-05-16T21:28:10.241Z,9.64
2023-05-16T21:30:37.042Z,9.58
2023-05-16T21:33:04.066Z,9.65
2023-05-16T21:35:31.222Z,9.69
2023-05-16T21:37:58.063Z,9.71
2023-05-16T21:40:28.990Z,9.54
2023-05-16T21:42:55.908Z,9.51
2023-05-16T21:45:22.686Z,9.56
2023-05-16T21:47:49.641Z,9.51
2023-05-16T21:50:17.806Z,9.48
2023-05-16T21:52:44.606Z,9.45
2023-05-16T21:55:11.413Z,9.42
2023-05-16T21:57:38.266Z,9.36
2023-05-16T22:00:09.361Z,9.36
2023-05-16T22:02:37.243Z,9.36
2023-05-16T22:05:04.888Z,9.31
2023-05-16T22:07:32.051Z,9.30
2023-05-16T22:09:59.176Z,9.21
2023-05-16T22:12:27.076Z,9.24
2023-05-16T22:14:54.431Z,9.29
2023-05-16T22:17:21.414Z,9.28
2023-05-16T22:19:48.408Z,9.27
2023-05-16T22:22:15.467Z,9.22
2023-05-16T22:24:42.253Z,9.10
2023-05-16T22:27:09.141Z,9.07
2023-05-16T22:29:38.412Z,9.04
2023-05-16T22:32:07.196Z,9.00
2023-05-16T22:34:34.705Z,9.06
2023-05-16T22:37:01.701Z,8.97
2023-05-16T22:39:28.725Z,8.99
2023-05-16T22:41:55.725Z,9.03
2023-05-16T22:44:22.460Z,8.95
2023-05-16T22:46:49.399Z,8.94
2023-05-16T22:49:16.636Z,8.98
2023-05-16T22:51:43.396Z,9.00
2023-05-16T22:54:10.165Z,9.08
2023-05-16T22:56:36.850Z,9.12
2023-05-16T22:59:03.604Z,9.03
2023-05-16T23:01:30.583Z,9.07
2023-05-16T23:03:57.571Z,9.00
2023-05-16T23:06:24.420Z,8.98
2023-05-16T23:08:51.318Z,8.94
2023-05-16T23:11:19.825Z,9.01
2023-05-16T23:13:46.760Z,9.02
2023-05-16T23:16:13.537Z,9.04
2023-05-16T23:18:40.781Z,9.10
2023-05-16T23:21:08.219Z,9.09
2023-05-16T23:23:35.039Z,9.06
2023-05-16T23:26:01.787Z,8.99
2023-05-16T23:28:28.585Z,8.85
2023-05-16T23:30:55.497Z,9.01
2023-05-16T23:33:22.321Z,8.99
2023-05-16T23:35:49.146Z,9.00
2023-05-16T23:38:16.133Z,9.00
2023-05-16T23:40:42.908Z,9.02
2023-05-16T23:43:09.679Z,8.99
2023-05-16T23:45:36.512Z,8.92
2023-05-16T23:48:03.906Z,8.92
2023-05-16T23:50:30.738Z,9.00
2023-05-16T23:52:57.529Z,8.95
2023-05-16T23:55:24.427Z,8.89
2023-05-16T23:57:51.218Z,8.87
